Riduci alla memoria
| Nome | Riduci alla memoria |
|---|---|
| Predefinito | Reduce to Memory |
| Tipo | Stregoneria: lezione |
| Descrizione | Esilio un permanente non terra bersaglio. Il suo controllore crea un token creatura Spirito rosso e bianco 3/2. |
| Gusto | «Non mettere in conto l'uso del processo. La stessa storia dell'oro scrive storie di koshmarov e tragedie». — Augusto, Decano Lordlorda |
| Artista | Campbell White |
| Espansione | The List #408 |
| Carta da parati | |
| Immagine |
Di Riduci alla memoria
Riduci alla memoria, Stregoneria: lezione, progettato da Campbell White rilasciato per la prima volta marzo 2021 in redazione Strixhaven: School of Mages ed è stato stampato esattamente in 2 forme diverse. Guarda il gioco 1 formato: Modern. Attualmente viene venduto al prezzo più basso di € 0,18.
Un mazzo di controllo che si concentra sulle rimozioni e sulle giocate temporanee trarrebbe vantaggio dall'utilizzo di Riduci alla memoria in un mazzo a base bianca, poiché fornisce un modo per esiliare un permanente non terra creando allo stesso tempo una pedina creatura per esercitare pressione. Tuttavia, nel formato sono disponibili opzioni di rimozione potenzialmente migliori, come Path to Exile o Swords to Plowshares, che offrono rimozioni più efficienti a un costo inferiore. Il fatto che Reduce to Memory venga giocato dipenderà dallo specifico metagame e dalla strategia del mazzo, poiché offre una combinazione unica di rimozione e generazione di token che potrebbe essere preziosa in determinati matchup.
Rugole
16/04/2021
Lezione è un sottotipo di magia presente su alcune carte istantaneo e stregoneria del set Strixhaven. Il sottotipo Lezione non ha regole speciali associate.
Dove comprare
![]() | TCG Player | 16 uni.
| € 0,18 | visita il negozio |
![]() | Card Kingdom | 53 uni.
| € 0,31 | visita il negozio |
![]() | Ebay.com | visita il negozio | ||
![]() | Cardkingdom | visita il negozio | ||
![]() | Printing proxies | $ 0.75 | visita il negozio |
*Questo sito contiene link di affiliazione per i quali potremmo ricevere un compenso
Gruppo
avviso di prezzo ?
Avvisami quando arriva il prezzo
Storico dell'andamento dei prezzi

Storico dei prezzi
| Data | Prezzo minimo | Prezzo medio | Decks |
|---|---|---|---|
| 2024-09-05 | 0.03 EUR | 0.20 EUR | 0 |
| 2024-09-09 | 0.03 EUR | 0.20 EUR | 0 |
| 2024-09-16 | 0.02 EUR | 0.19 EUR | 0 |
| 2024-09-23 | 0.03 EUR | 0.19 EUR | 0 |
| 2024-09-30 | 0.03 EUR | 0.19 EUR | 0 |
| 2024-10-07 | 0.02 EUR | 0.19 EUR | 0 |
| 2024-10-14 | 0.03 EUR | 0.19 EUR | 0 |
| 2024-10-21 | 0.03 EUR | 0.20 EUR | 0 |
| 2024-10-28 | 0.03 EUR | 0.20 EUR | 0 |
| 2024-11-06 | 0.03 EUR | 0.20 EUR | 0 |
| 2024-11-11 | 0.03 EUR | 0.20 EUR | 0 |
| 2024-11-18 | 0.03 EUR | 0.20 EUR | 0 |
| 2024-11-25 | 0.03 EUR | 0.20 EUR | 0 |
| 2024-12-02 | 0.04 EUR | 0.21 EUR | 0 |
| 2024-12-09 | 0.05 EUR | 0.21 EUR | 0 |
| 2024-12-19 | 0.05 EUR | 0.21 EUR | 0 |
| 2024-12-23 | 0.05 EUR | 0.21 EUR | 0 |
| 2024-12-30 | 0.05 EUR | 0.21 EUR | 0 |
| 2025-01-01 | 0.05 EUR | 0.21 EUR | 0 |
| 2025-01-06 | 0.05 EUR | 0.21 EUR | 0 |
| 2025-01-13 | 0.05 EUR | 0.21 EUR | 0 |
| 2025-01-20 | 0.05 EUR | 0.21 EUR | 0 |
| 2025-01-27 | 0.05 EUR | 0.21 EUR | 0 |
| 2025-02-03 | 0.05 EUR | 0.21 EUR | 0 |
| 2025-02-10 | 0.05 EUR | 0.21 EUR | 0 |
| 2025-02-18 | 0.03 EUR | 0.19 EUR | 0 |
| 2025-04-27 | 0.05 EUR | 0.19 EUR | 0 |
| 2025-04-28 | 0.04 EUR | 0.20 EUR | 0 |
| 2025-05-06 | 0.04 EUR | 0.20 EUR | 0 |
| 2025-05-12 | 0.04 EUR | 0.20 EUR | 0 |
| 2025-05-19 | 0.05 EUR | 0.21 EUR | 0 |
| 2025-05-28 | 0.06 EUR | 0.20 EUR | 0 |
| 2025-06-03 | 0.09 EUR | 0.21 EUR | 0 |
| 2025-06-10 | 0.07 EUR | 0.20 EUR | 0 |
| 2025-06-17 | 0.04 EUR | 0.19 EUR | 0 |
| 2025-06-23 | 0.04 EUR | 0.19 EUR | 0 |
| 2025-07-01 | 0.05 EUR | 0.20 EUR | 0 |
| 2025-07-08 | 0.01 EUR | 0.18 EUR | 1 |
| 2025-07-15 | 0.02 EUR | 0.19 EUR | 0 |
| 2025-07-22 | 0.04 EUR | 0.20 EUR | 0 |
| 2025-07-29 | 0.04 EUR | 0.20 EUR | 0 |
| 2025-08-05 | 0.04 EUR | 0.19 EUR | 0 |
| 2025-08-12 | 0.04 EUR | 0.15 EUR | 0 |
| 2025-08-18 | 0.04 EUR | 0.19 EUR | 0 |
| 2025-08-25 | 0.04 EUR | 0.21 EUR | 0 |
| 2025-09-02 | 0.04 EUR | 0.20 EUR | 0 |
| 2025-09-09 | 0.04 EUR | 0.20 EUR | 0 |
| 2025-09-15 | 0.04 EUR | 0.20 EUR | 0 |
| 2025-09-23 | 0.04 EUR | 0.20 EUR | 0 |
| 2025-09-29 | 0.32 EUR | 0.32 EUR | 0 |
| 2025-10-06 | 0.32 EUR | 0.32 EUR | 0 |
| 2025-10-13 | 0.32 EUR | 0.33 EUR | 1 |
| 2025-10-20 | 0.32 EUR | 0.32 EUR | 0 |
| 2025-10-27 | 0.32 EUR | 0.32 EUR | 0 |
| 2025-11-03 | 0.32 EUR | 0.32 EUR | 0 |
| 2025-11-10 | 0.32 EUR | 0.32 EUR | 0 |
| 2025-11-18 | 0.31 EUR | 0.32 EUR | 0 |
| 2025-11-24 | 0.32 EUR | 0.32 EUR | 0 |
| 2025-12-03 | 0.32 EUR | 0.32 EUR | 0 |
| 2025-12-08 | 0.32 EUR | 0.32 EUR | 0 |
| 2025-12-15 | 0.32 EUR | 0.32 EUR | 0 |
| 2025-12-22 | 0.33 EUR | 0.33 EUR | 0 |
| 2025-12-29 | 0.33 EUR | 0.33 EUR | 1 |
| 2026-01-01 | 0.33 EUR | 0.33 EUR | 2 |
| 2026-01-05 | 0.32 EUR | 0.32 EUR | 2 |
| 2026-01-13 | 0.32 EUR | 0.32 EUR | 0 |
| 2026-01-20 | 0.32 EUR | 0.32 EUR | 0 |
| 2026-01-26 | 0.31 EUR | 0.31 EUR | 0 |
| 2026-02-02 | 0.31 EUR | 0.31 EUR | 0 |
| 2026-02-09 | 0.31 EUR | 0.31 EUR | 0 |
| 2026-02-16 | 0.31 EUR | 0.31 EUR | 0 |
| 2026-02-23 | 0.31 EUR | 0.31 EUR | 0 |
| 2026-03-02 | 0.31 EUR | 0.31 EUR | 0 |
| 2026-03-10 | 0.31 EUR | 0.31 EUR | 0 |
| 2026-03-16 | 0.31 EUR | 0.31 EUR | 0 |
| 2026-04-02 | 0.31 EUR | 0.31 EUR | 0 |
| 2026-04-07 | 0.31 EUR | 0.31 EUR | 0 |
| 2026-04-14 | 0.30 EUR | 0.30 EUR | 0 |
| 2026-04-23 | 0.29 EUR | 0.29 EUR | 0 |
| 2026-04-30 | 0.29 EUR | 0.29 EUR | 0 |
| 2026-05-05 | 0.29 EUR | 0.29 EUR | 0 |
| 2026-05-14 | 0.29 EUR | 0.29 EUR | 0 |
| 2026-05-20 | 0.30 EUR | 0.30 EUR | 0 |
| 2026-05-25 | 0.30 EUR | 0.30 EUR | 0 |
| 2026-06-01 | 0.30 EUR | 0.30 EUR | 0 |
| 2026-06-08 | 0.30 EUR | 0.31 EUR | 0 |
| 2026-06-15 | 0.30 EUR | 0.31 EUR | 0 |
| 2026-06-23 | 0.31 EUR | 0.31 EUR | 0 |
| 2026-06-29 | 0.31 EUR | 0.31 EUR | 0 |
| 2026-07-06 | 0.18 EUR | 0.27 EUR | 0 |
| 2026-07-13 | 0.02 EUR | 0.21 EUR | 0 |
| 2026-07-20 | 0.02 EUR | 0.22 EUR | 0 |
| 2026-07-27 | 0.05 EUR | 0.22 EUR | 0 |
| 2026-08-03 | 0.07 EUR | 0.23 EUR | 0 |
| 2026-08-10 | 0.16 EUR | 0.26 EUR | 0 |
| 2026-08-17 | 0.18 EUR | 0.28 EUR | 0 |
| 2026-08-24 | 0.22 EUR | 0.29 EUR | 0 |
| 2026-09-01 | 0.21 EUR | 0.29 EUR | 0 |
Domande frequenti su Riduci alla memoria
Che tipo di carta è Riduci alla memoria?
Riduci alla memoria è Stregoneria: lezione carta inserita Magic: the Gathering MTG.
Qual è l'effetto della carta Riduci alla memoria?
Esilio un permanente non terra bersaglio. Il suo controllore crea un token creatura Spirito rosso e bianco 3/2.
Qual è il prezzo della carta Riduci alla memoria?
Riduci alla memoria attualmente inizia alle € 0,18. Visualizza i prezzi in tempo reale di più venditori nella sezione Dove acquistare sopra.
Qual è il set originale della carta Riduci alla memoria?
Riduci alla memoria è stato rilasciato per la prima volta nel set Strixhaven: School of Mages, illustrato da Campbell White.
Qual è la legalità della carta Riduci alla memoria?
La legalità dipende dal formato del torneo: Riduci alla memoria può essere legale in alcuni formati e vietato o limitato in altri. Consulta la ripartizione completa per formato nella sezione Legalità sopra.
Quali sono i formati competitivi della carta Riduci alla memoria?
Riduci alla memoria vede il gioco del metagame competitivo 1 formato/i: Modern.






Reazioni
0
0 Commenti
Diventa il primo a commentare